Kita Airport


Codes: GAKT/
Name: Kita Airport
City: Kita
Country: Mali
Elevation: 1122 ft.

Photos at Kita Airport


   Photos courtesy of SpottingLog. You can add your own sightings and photos by signing up for a free trial today.



No photos found.

Weather at Kita Airport


Time (UTC)DescriptionTempratureWindCloud coverageVisibilityPressureHumidity
23-May-2024 18:00Broken Clouds40°C7 mph, NE65%10000m1005hPa19%
23-May-2024 21:00Broken Clouds39°C7 mph, SE71%10000m1006hPa23%
24-May-2024 00:00Broken Clouds36°C9 mph, W82%10000m1008hPa30%
24-May-2024 03:00Overcast Clouds32°C9 mph, SW97%10000m1009hPa41%
24-May-2024 06:00Overcast Clouds30°C4 mph, SW87%10000m1010hPa47%
24-May-2024 09:00Broken Clouds32°C7 mph, SW79%10000m1012hPa46%
24-May-2024 12:00Overcast Clouds38°C4 mph, W89%10000m1011hPa31%
24-May-2024 15:00Overcast Clouds40°C7 mph, NW99%10000m1007hPa24%
24-May-2024 18:00Light Rain33°C4 mph, SW98%10000m1008hPa42%
24-May-2024 21:00Overcast Clouds33°C4 mph, S85%10000m1009hPa39%
25-May-2024 00:00Overcast Clouds33°C2 mph, SW88%10000m1010hPa39%
25-May-2024 03:00Overcast Clouds32°C7 mph, W100%10000m1008hPa41%
25-May-2024 06:00Broken Clouds30°C7 mph, S75%10000m1011hPa48%
25-May-2024 09:00Overcast Clouds33°C9 mph, W97%10000m1012hPa41%
25-May-2024 12:00Overcast Clouds38°C9 mph, W99%10000m1011hPa27%
25-May-2024 15:00Overcast Clouds41°C2 mph, W85%10000m1008hPa20%
25-May-2024 18:00Overcast Clouds40°C2 mph, W93%10000m1006hPa20%
25-May-2024 21:00Overcast Clouds35°C9 mph, S100%10000m1009hPa31%
26-May-2024 00:00Overcast Clouds34°C7 mph, S100%10000m1010hPa31%
26-May-2024 03:00Light Rain32°C4 mph, SE99%10000m1009hPa38%
26-May-2024 06:00Overcast Clouds30°C9 mph, S100%10000m1010hPa47%
26-May-2024 09:00Overcast Clouds32°C7 mph, SW99%10000m1012hPa46%
26-May-2024 12:00Broken Clouds37°C4 mph, W67%10000m1011hPa29%
26-May-2024 15:00Broken Clouds40°C2 mph, NW69%10000m1008hPa22%
26-May-2024 18:00Scattered Clouds40°C0 mph, S49%10000m1007hPa21%
26-May-2024 21:00Light Rain35°C2 mph, S62%10000m1010hPa30%
27-May-2024 00:00Broken Clouds34°C4 mph, SW66%10000m1010hPa34%
27-May-2024 03:00Broken Clouds31°C9 mph, SW79%10000m1010hPa44%
27-May-2024 06:00Broken Clouds29°C7 mph, S56%10000m1012hPa57%
27-May-2024 09:00Broken Clouds33°C4 mph, SW71%10000m1013hPa42%
27-May-2024 12:00Broken Clouds38°C4 mph, W79%10000m1011hPa27%
27-May-2024 15:00Broken Clouds42°C2 mph, NW72%10000m1008hPa19%
27-May-2024 18:00Overcast Clouds40°C2 mph, W86%10000m1007hPa19%
27-May-2024 21:00Overcast Clouds36°C4 mph, SW100%10000m1010hPa28%
28-May-2024 00:00Light Rain34°C4 mph, SW100%10000m1010hPa32%
28-May-2024 03:00Overcast Clouds33°C7 mph, S100%10000m1009hPa42%
28-May-2024 06:00Overcast Clouds31°C7 mph, S100%10000m1010hPa52%
28-May-2024 09:00Overcast Clouds33°C7 mph, W100%10000m1012hPa41%
28-May-2024 12:00Broken Clouds40°C4 mph, W77%10000m1011hPa24%
28-May-2024 15:00Scattered Clouds41°C4 mph, NW43%10000m1007hPa21%